Time;durP1;ratioP1;P1;durP2;ratioP2;P2;SDS_P1;SDS_P2;PMS_P1;PMS_P2;Temp;Humidity;BMP_temperature;BMP_pressure;BME280_temperature;BME280_humidity;BME280_pressure;Samples;Min_cycle;Max_cycle;Signal;HPM_P1;HPM_P2
2021/10/06 00:00:03;;;;;;;0.40;0.20;;;11.70;99.90;;;;;;5071971;28;20423;-57
2021/10/06 00:02:33;;;;;;;0.40;0.20;;;11.70;99.90;;;;;;5072385;28;20902;-58
2021/10/06 00:05:00;;;;;;;0.60;0.20;;;11.70;99.90;;;;;;5070798;28;20874;-58
2021/10/06 00:07:28;;;;;;;0.40;0.20;;;11.70;99.90;;;;;;5073236;28;20423;-57
2021/10/06 00:09:57;;;;;;;0.32;0.13;;;11.60;99.90;;;;;;5072367;28;20438;-58
2021/10/06 00:12:37;;;;;;;0.40;0.20;;;11.60;99.90;;;;;;5073372;28;20491;-56
2021/10/06 00:15:13;;;;;;;0.65;0.20;;;11.70;99.90;;;;;;5073333;28;20719;-57
2021/10/06 00:17:48;;;;;;;1.40;0.20;;;11.60;99.90;;;;;;5073006;28;20788;-57
2021/10/06 00:20:16;;;;;;;2.80;0.30;;;11.50;99.90;;;;;;5071688;28;20427;-57
2021/10/06 00:22:44;;;;;;;0.40;0.20;;;11.50;99.90;;;;;;5074287;28;20803;-58
2021/10/06 00:25:12;;;;;;;1.00;0.20;;;11.40;99.90;;;;;;5071951;28;20486;-57
2021/10/06 00:27:41;;;;;;;0.50;0.20;;;11.40;99.90;;;;;;5072219;28;20707;-58
2021/10/06 00:30:10;;;;;;;0.40;0.20;;;11.40;99.90;;;;;;5072741;28;20430;-58
2021/10/06 00:32:47;;;;;;;0.50;0.20;;;11.30;99.90;;;;;;5071515;28;20526;-58
2021/10/06 00:35:17;;;;;;;0.47;0.20;;;11.30;99.90;;;;;;5070402;28;20520;-58
2021/10/06 00:37:47;;;;;;;0.50;0.20;;;11.30;99.90;;;;;;5071930;28;20704;-58
2021/10/06 00:40:17;;;;;;;0.40;0.20;;;11.40;99.90;;;;;;5071854;28;21118;-57
2021/10/06 00:42:44;;;;;;;1.00;0.20;;;11.30;99.90;;;;;;5072218;28;20827;-58
2021/10/06 00:45:15;;;;;;;0.43;0.20;;;11.40;99.90;;;;;;5073785;28;20968;-58
2021/10/06 00:47:42;;;;;;;0.80;0.20;;;11.50;99.90;;;;;;5072512;28;20446;-57
2021/10/06 00:50:10;;;;;;;0.40;0.20;;;11.40;99.90;;;;;;5073138;28;20836;-58
2021/10/06 00:52:40;;;;;;;0.40;0.20;;;11.50;99.90;;;;;;5073179;28;20465;-57
2021/10/06 00:55:09;;;;;;;0.80;0.20;;;11.60;99.90;;;;;;5072590;28;20445;-58
2021/10/06 00:57:38;;;;;;;0.77;0.20;;;11.60;99.90;;;;;;5071833;28;20422;-55
2021/10/06 01:00:10;;;;;;;2.50;0.20;;;11.60;99.90;;;;;;5073552;28;20439;-57
2021/10/06 01:02:41;;;;;;;0.50;0.20;;;11.60;99.90;;;;;;5074239;28;20514;-57
2021/10/06 01:05:10;;;;;;;0.70;0.20;;;11.70;99.90;;;;;;5072555;28;20435;-56
2021/10/06 01:07:42;;;;;;;0.60;0.20;;;11.60;99.90;;;;;;5074228;28;20415;-57
2021/10/06 01:10:11;;;;;;;0.30;0.20;;;11.70;99.90;;;;;;5073987;28;20434;-58
2021/10/06 01:12:40;;;;;;;0.40;0.20;;;11.70;99.90;;;;;;5074568;28;20426;-56
2021/10/06 01:15:10;;;;;;;0.90;0.20;;;11.70;99.90;;;;;;5074396;28;20510;-57
2021/10/06 01:17:38;;;;;;;1.20;0.20;;;11.70;99.90;;;;;;5074255;28;20535;-57
2021/10/06 01:20:10;;;;;;;0.70;0.20;;;11.60;99.90;;;;;;5074155;28;20809;-57
2021/10/06 01:22:41;;;;;;;0.60;0.20;;;11.60;99.90;;;;;;5076656;28;20420;-57
2021/10/06 01:25:11;;;;;;;0.40;0.20;;;11.60;99.90;;;;;;5076402;28;20600;-58
2021/10/06 01:27:39;;;;;;;0.70;0.20;;;11.50;99.90;;;;;;5078089;28;20423;-55
2021/10/06 01:30:12;;;;;;;0.90;0.20;;;11.40;99.90;;;;;;5076387;28;20500;-55
2021/10/06 01:32:43;;;;;;;0.40;0.20;;;11.40;99.90;;;;;;5077916;28;20434;-56
2021/10/06 01:35:16;;;;;;;0.50;0.20;;;11.40;99.90;;;;;;5075858;28;20423;-56
2021/10/06 01:37:45;;;;;;;1.40;0.30;;;11.40;99.90;;;;;;5077012;28;20419;-57
2021/10/06 01:40:15;;;;;;;0.60;0.20;;;11.40;99.90;;;;;;5075139;28;20431;-56
2021/10/06 01:42:43;;;;;;;0.40;0.20;;;11.30;99.90;;;;;;5074617;28;20420;-57
2021/10/06 01:45:16;;;;;;;0.60;0.20;;;11.20;99.90;;;;;;5075192;28;20526;-57
2021/10/06 01:47:44;;;;;;;0.63;0.30;;;11.20;99.90;;;;;;5075377;28;21010;-56
2021/10/06 01:50:11;;;;;;;0.40;0.20;;;11.20;99.90;;;;;;5075340;28;20437;-55
2021/10/06 01:52:38;;;;;;;0.80;0.20;;;11.20;99.90;;;;;;5075370;28;20416;-56
2021/10/06 01:55:08;;;;;;;0.43;0.20;;;11.20;99.90;;;;;;5076889;28;20427;-56
2021/10/06 01:57:35;;;;;;;0.77;0.20;;;11.10;99.90;;;;;;5076435;28;20514;-57
2021/10/06 02:00:03;;;;;;;0.60;0.28;;;11.20;99.90;;;;;;5077091;28;20722;-57
2021/10/06 02:02:30;;;;;;;0.77;0.20;;;11.20;99.90;;;;;;5077257;28;20423;-57
2021/10/06 02:04:58;;;;;;;0.95;0.20;;;11.20;99.90;;;;;;5077674;28;20446;-57
2021/10/06 02:07:25;;;;;;;0.75;0.20;;;11.20;99.90;;;;;;5077372;28;20506;-57
2021/10/06 02:09:52;;;;;;;0.40;0.20;;;11.20;99.90;;;;;;5075592;28;20424;-55
2021/10/06 02:12:21;;;;;;;0.40;0.20;;;11.20;99.90;;;;;;5076850;28;20415;-56
2021/10/06 02:14:48;;;;;;;0.40;0.20;;;11.20;99.90;;;;;;5076091;28;20415;-57
2021/10/06 02:17:15;;;;;;;0.60;0.20;;;11.10;99.90;;;;;;5075786;28;20795;-56
2021/10/06 02:19:42;;;;;;;1.40;0.20;;;11.20;99.90;;;;;;5075775;28;20420;-57
2021/10/06 02:22:10;;;;;;;0.47;0.20;;;11.20;99.90;;;;;;5076638;28;20727;-56
2021/10/06 02:24:37;;;;;;;0.40;0.20;;;11.10;99.90;;;;;;5076264;28;20518;-57
2021/10/06 02:27:04;;;;;;;0.40;0.20;;;11.10;99.90;;;;;;5074008;28;20430;-57
2021/10/06 02:29:33;;;;;;;0.90;0.20;;;11.00;99.90;;;;;;5075562;28;20429;-58
2021/10/06 02:32:00;;;;;;;1.00;0.30;;;11.00;99.90;;;;;;5074977;28;20478;-57
2021/10/06 02:34:27;;;;;;;0.30;0.20;;;10.90;99.90;;;;;;5075510;28;20718;-57
2021/10/06 02:36:54;;;;;;;1.40;0.20;;;10.80;99.90;;;;;;5075277;28;20441;-56
2021/10/06 02:39:21;;;;;;;1.15;0.20;;;10.80;99.90;;;;;;5075193;28;20514;-59
2021/10/06 02:41:49;;;;;;;0.70;0.20;;;10.70;99.90;;;;;;5075841;28;20434;-57
2021/10/06 02:44:16;;;;;;;1.00;0.20;;;10.80;99.90;;;;;;5077007;28;20522;-58
2021/10/06 02:46:45;;;;;;;0.70;0.20;;;10.80;99.90;;;;;;5076788;28;20424;-57
2021/10/06 02:49:12;;;;;;;0.68;0.20;;;10.80;99.90;;;;;;5075752;28;20423;-57
2021/10/06 02:51:39;;;;;;;0.40;0.20;;;10.80;99.90;;;;;;5076558;28;20838;-58
2021/10/06 02:54:06;;;;;;;0.40;0.20;;;10.80;99.90;;;;;;5076166;28;20723;-57
2021/10/06 02:56:33;;;;;;;0.40;0.20;;;10.70;99.90;;;;;;5075368;28;20433;-57
2021/10/06 02:59:00;;;;;;;1.17;0.30;;;10.60;99.90;;;;;;5074933;28;20445;-57
2021/10/06 03:01:28;;;;;;;0.60;0.20;;;10.60;99.90;;;;;;5073718;28;20427;-58
2021/10/06 03:03:57;;;;;;;0.35;0.20;;;10.70;99.90;;;;;;5074259;28;20754;-58
2021/10/06 03:06:24;;;;;;;0.90;0.20;;;10.70;99.90;;;;;;5074838;28;20463;-58
2021/10/06 03:08:51;;;;;;;0.80;0.20;;;10.70;99.90;;;;;;5074706;28;20742;-57
2021/10/06 03:11:18;;;;;;;0.90;0.20;;;10.60;99.90;;;;;;5075479;28;20731;-56
2021/10/06 03:13:46;;;;;;;0.50;0.20;;;10.70;99.90;;;;;;5075796;28;20433;-57
2021/10/06 03:16:14;;;;;;;0.60;0.20;;;10.50;99.90;;;;;;5076210;28;20477;-57
2021/10/06 03:18:41;;;;;;;0.75;0.20;;;10.40;99.90;;;;;;5076627;28;20430;-57
2021/10/06 03:21:10;;;;;;;0.60;0.20;;;10.40;99.90;;;;;;5075647;28;20438;-55
2021/10/06 03:23:37;;;;;;;1.23;0.30;;;10.40;99.90;;;;;;5075300;28;20420;-56
2021/10/06 03:26:04;;;;;;;0.50;0.20;;;10.40;99.90;;;;;;5073261;28;20423;-57
2021/10/06 03:28:31;;;;;;;0.50;0.20;;;10.40;99.90;;;;;;5074900;28;20459;-57
2021/10/06 03:30:58;;;;;;;0.70;0.20;;;10.50;99.90;;;;;;5074740;28;20427;-56
2021/10/06 03:33:26;;;;;;;0.43;0.20;;;10.50;99.90;;;;;;5074854;28;20430;-58
2021/10/06 03:35:53;;;;;;;0.43;0.20;;;10.50;99.90;;;;;;5075320;28;20427;-57
2021/10/06 03:38:21;;;;;;;0.60;0.20;;;10.70;99.90;;;;;;5074787;28;20420;-58
2021/10/06 03:40:49;;;;;;;0.90;0.30;;;10.80;99.90;;;;;;5074627;28;20438;-55
2021/10/06 03:43:16;;;;;;;2.10;0.20;;;10.90;99.90;;;;;;5074134;28;20506;-54
2021/10/06 03:45:43;;;;;;;0.68;0.30;;;10.90;99.90;;;;;;5074356;28;20649;-57
2021/10/06 03:48:10;;;;;;;0.40;0.20;;;10.90;99.90;;;;;;5074924;28;20731;-56
2021/10/06 03:50:38;;;;;;;0.50;0.20;;;10.90;99.90;;;;;;5074291;28;20437;-58
2021/10/06 03:53:05;;;;;;;1.00;0.20;;;10.80;99.90;;;;;;5073937;28;20732;-51
2021/10/06 03:55:34;;;;;;;0.45;0.20;;;10.80;99.90;;;;;;5072772;28;20423;-54
2021/10/06 03:58:02;;;;;;;1.60;0.30;;;10.70;99.90;;;;;;5074007;28;20424;-55
2021/10/06 04:00:30;;;;;;;1.10;0.20;;;10.80;99.90;;;;;;5073320;28;20457;-56
2021/10/06 04:02:57;;;;;;;0.50;0.20;;;10.80;99.90;;;;;;5073779;28;20762;-55
2021/10/06 04:05:25;;;;;;;0.40;0.20;;;10.80;99.90;;;;;;5072940;28;20861;-54
2021/10/06 04:07:52;;;;;;;0.40;0.20;;;10.70;99.90;;;;;;5073755;28;20431;-56
2021/10/06 04:10:21;;;;;;;0.82;0.20;;;10.80;99.90;;;;;;5073381;28;20423;-57
2021/10/06 04:12:49;;;;;;;0.90;0.20;;;10.90;99.90;;;;;;5073482;28;20762;-57
2021/10/06 04:15:18;;;;;;;0.70;0.20;;;11.00;99.90;;;;;;5074409;28;20428;-57
2021/10/06 04:17:45;;;;;;;0.82;0.20;;;11.10;99.90;;;;;;5074125;28;20827;-57
2021/10/06 04:20:13;;;;;;;0.30;0.20;;;11.00;99.90;;;;;;5073332;28;20522;-57
2021/10/06 04:22:40;;;;;;;0.50;0.20;;;10.90;99.90;;;;;;5072892;28;20429;-57
2021/10/06 04:25:09;;;;;;;0.40;0.20;;;10.80;99.90;;;;;;5070441;28;21002;-53
2021/10/06 04:27:36;;;;;;;0.50;0.20;;;10.80;99.90;;;;;;5072664;28;20703;-55
2021/10/06 04:30:07;;;;;;;0.50;0.20;;;10.80;99.90;;;;;;5072473;28;20470;-58
2021/10/06 04:32:34;;;;;;;2.10;0.30;;;11.00;99.90;;;;;;5071857;28;20412;-55
2021/10/06 04:35:02;;;;;;;0.70;0.20;;;11.10;99.90;;;;;;5072495;28;20423;-57
2021/10/06 04:37:29;;;;;;;0.70;0.20;;;11.00;99.90;;;;;;5073938;28;20909;-56
2021/10/06 04:39:56;;;;;;;1.10;0.20;;;11.00;99.90;;;;;;5072355;28;20431;-57
2021/10/06 04:42:23;;;;;;;1.20;0.30;;;10.90;99.90;;;;;;5092268;28;20444;-55
2021/10/06 04:44:50;;;;;;;1.50;0.20;;;10.80;99.90;;;;;;5093903;28;20699;-57
2021/10/06 04:47:19;;;;;;;0.43;0.20;;;10.80;99.90;;;;;;5088162;28;20448;-55
2021/10/06 04:49:46;;;;;;;0.40;0.20;;;10.90;99.90;;;;;;5094402;28;20500;-57
2021/10/06 04:52:13;;;;;;;1.30;0.20;;;11.20;99.90;;;;;;5093312;28;20706;-55
2021/10/06 04:54:41;;;;;;;0.60;0.20;;;11.20;99.90;;;;;;5093538;28;20875;-57
2021/10/06 04:57:08;;;;;;;1.80;0.20;;;11.20;99.90;;;;;;5097725;28;20430;-57
2021/10/06 04:59:35;;;;;;;0.50;0.20;;;11.20;99.90;;;;;;5098231;28;20418;-58
2021/10/06 05:02:02;;;;;;;0.68;0.20;;;11.10;99.90;;;;;;5098152;28;20417;-54
2021/10/06 05:04:31;;;;;;;0.50;0.20;;;10.90;99.90;;;;;;5098333;28;20532;-56
2021/10/06 05:06:58;;;;;;;0.40;0.20;;;10.90;99.90;;;;;;5098413;28;20429;-55
2021/10/06 05:09:25;;;;;;;0.43;0.20;;;10.80;99.90;;;;;;5098230;28;20421;-57
2021/10/06 05:11:53;;;;;;;0.40;0.20;;;10.80;99.90;;;;;;5098105;28;20434;-57
2021/10/06 05:14:20;;;;;;;0.68;0.20;;;10.80;99.90;;;;;;5098259;28;20490;-52
2021/10/06 05:16:47;;;;;;;0.80;0.20;;;10.70;99.90;;;;;;5098270;28;20422;-56
2021/10/06 05:19:14;;;;;;;0.50;0.30;;;10.70;99.90;;;;;;5098128;28;20524;-52
2021/10/06 05:21:43;;;;;;;0.40;0.20;;;10.70;99.90;;;;;;5098206;28;20878;-53
2021/10/06 05:24:10;;;;;;;1.00;0.30;;;10.70;99.90;;;;;;5097405;28;20413;-54
2021/10/06 05:26:37;;;;;;;0.70;0.20;;;10.80;99.90;;;;;;5093175;28;20517;-53
2021/10/06 05:29:04;;;;;;;0.52;0.20;;;10.80;99.90;;;;;;5094522;28;20788;-55
2021/10/06 05:31:32;;;;;;;0.50;0.20;;;10.80;99.90;;;;;;5095840;28;20522;-54
2021/10/06 05:33:59;;;;;;;0.40;0.20;;;10.70;99.90;;;;;;5094824;28;20875;-56
2021/10/06 05:36:26;;;;;;;0.40;0.20;;;10.80;99.90;;;;;;5095014;28;20524;-54
2021/10/06 05:38:55;;;;;;;0.50;0.20;;;10.90;99.90;;;;;;5093577;28;20461;-53
2021/10/06 05:41:22;;;;;;;0.40;0.20;;;11.00;99.90;;;;;;5094874;28;20897;-53
2021/10/06 05:43:49;;;;;;;0.32;0.20;;;11.00;99.90;;;;;;5095889;28;20420;-57
2021/10/06 05:46:17;;;;;;;1.90;0.20;;;10.90;99.90;;;;;;5095253;28;20813;-55
2021/10/06 05:48:44;;;;;;;0.40;0.20;;;10.90;99.90;;;;;;5095686;28;20508;-53
2021/10/06 05:51:11;;;;;;;1.00;0.20;;;10.90;99.90;;;;;;5096387;28;20966;-54
2021/10/06 05:53:38;;;;;;;0.80;0.20;;;10.90;99.90;;;;;;5095442;28;20421;-56
2021/10/06 05:56:07;;;;;;;0.50;0.20;;;11.10;99.90;;;;;;5095099;28;20516;-55
2021/10/06 05:58:34;;;;;;;1.10;0.20;;;11.10;99.90;;;;;;5096114;28;20857;-56
2021/10/06 06:01:02;;;;;;;0.50;0.20;;;11.30;99.90;;;;;;5094778;28;20521;-54
2021/10/06 06:03:29;;;;;;;1.50;0.20;;;11.40;99.90;;;;;;5093902;28;20429;-53
2021/10/06 06:05:57;;;;;;;0.50;0.20;;;11.70;99.90;;;;;;5092453;28;20635;-55
2021/10/06 06:08:24;;;;;;;0.40;0.20;;;11.90;99.90;;;;;;5090559;28;20424;-56
2021/10/06 06:10:51;;;;;;;0.40;0.20;;;11.90;99.90;;;;;;5090510;28;20426;-53
2021/10/06 06:13:20;;;;;;;0.40;0.20;;;11.70;99.90;;;;;;5079365;28;20514;-57
2021/10/06 06:15:52;;;;;;;0.60;0.20;;;11.60;99.90;;;;;;5087827;28;20422;-52
2021/10/06 06:18:19;;;;;;;0.50;0.20;;;11.60;99.90;;;;;;5080551;28;20555;-49
2021/10/06 06:20:47;;;;;;;0.40;0.20;;;11.50;99.90;;;;;;5073291;28;20525;-56
2021/10/06 06:23:14;;;;;;;0.70;0.20;;;11.30;99.90;;;;;;5071459;28;20423;-55
2021/10/06 06:25:42;;;;;;;0.80;0.30;;;11.10;99.90;;;;;;5070343;28;20431;-55
2021/10/06 06:28:09;;;;;;;0.52;0.20;;;11.20;99.90;;;;;;5077702;28;20427;-54
2021/10/06 06:30:41;;;;;;;1.40;0.30;;;11.10;99.90;;;;;;5089692;28;20509;-54
2021/10/06 06:33:09;;;;;;;0.80;0.30;;;11.10;99.90;;;;;;5078666;28;20439;-55
2021/10/06 06:35:36;;;;;;;1.10;0.20;;;11.10;99.90;;;;;;5079422;28;20475;-53
2021/10/06 06:38:04;;;;;;;0.40;0.20;;;11.00;99.90;;;;;;5074058;28;20511;-55
2021/10/06 06:40:31;;;;;;;0.85;0.20;;;11.00;99.90;;;;;;5089191;28;20435;-53
2021/10/06 06:42:58;;;;;;;0.70;0.20;;;11.00;99.90;;;;;;5078696;28;20505;-54
2021/10/06 06:45:26;;;;;;;0.75;0.22;;;11.30;99.90;;;;;;5085049;28;20426;-52
2021/10/06 06:47:55;;;;;;;1.20;0.30;;;11.20;99.90;;;;;;5093136;28;20845;-55
2021/10/06 06:50:22;;;;;;;0.40;0.20;;;11.40;99.90;;;;;;5081659;28;20517;-55
2021/10/06 06:52:50;;;;;;;1.90;0.30;;;11.40;99.90;;;;;;5079278;28;20436;-55
2021/10/06 06:55:17;;;;;;;0.50;0.20;;;11.40;99.90;;;;;;5086814;28;20445;-53
2021/10/06 06:57:44;;;;;;;0.90;0.20;;;11.50;99.90;;;;;;5075197;28;20420;-54
2021/10/06 07:00:12;;;;;;;0.65;0.20;;;11.40;99.90;;;;;;5090912;28;20488;-53
2021/10/06 07:02:40;;;;;;;1.35;0.20;;;11.30;99.90;;;;;;5090128;28;20713;-53
2021/10/06 07:05:09;;;;;;;0.40;0.20;;;11.40;99.90;;;;;;5091940;28;20442;-53
2021/10/06 07:07:37;;;;;;;0.40;0.20;;;11.40;99.90;;;;;;5093467;28;20801;-57
2021/10/06 07:10:08;;;;;;;1.60;0.60;;;11.30;99.90;;;;;;5094737;28;20496;-55
2021/10/06 07:12:35;;;;;;;0.60;0.22;;;11.50;99.90;;;;;;5088803;28;20772;-57
2021/10/06 07:15:02;;;;;;;0.43;0.20;;;11.70;99.90;;;;;;5073505;28;20434;-57
2021/10/06 07:17:29;;;;;;;0.50;0.20;;;11.80;99.90;;;;;;5079002;28;20485;-58
2021/10/06 07:19:56;;;;;;;1.20;0.30;;;11.70;99.90;;;;;;5071547;28;20527;-57
2021/10/06 07:22:27;;;;;;;0.50;0.20;;;11.60;99.90;;;;;;5071479;28;20782;-54
2021/10/06 07:24:55;;;;;;;0.40;0.20;;;11.30;99.90;;;;;;5072576;28;20436;-56
2021/10/06 07:27:22;;;;;;;0.50;0.20;;;11.40;99.90;;;;;;5089619;28;20427;-54
2021/10/06 07:29:50;;;;;;;4.30;0.30;;;11.40;99.90;;;;;;5089032;28;20507;-52
2021/10/06 07:32:17;;;;;;;0.60;0.20;;;11.50;99.90;;;;;;5091053;28;20822;-50
2021/10/06 07:34:44;;;;;;;0.40;0.20;;;11.60;99.90;;;;;;5091913;28;20428;-53
2021/10/06 07:37:11;;;;;;;0.50;0.20;;;11.70;99.90;;;;;;5073813;28;20765;-54
2021/10/06 07:39:40;;;;;;;0.40;0.20;;;11.60;99.90;;;;;;5085605;28;20440;-59
2021/10/06 07:42:08;;;;;;;0.90;0.20;;;11.70;99.90;;;;;;5087156;28;21017;-55
2021/10/06 07:44:37;;;;;;;1.80;0.20;;;11.70;99.90;;;;;;5076621;28;20424;-56
2021/10/06 07:47:04;;;;;;;0.52;0.20;;;11.80;99.90;;;;;;5072692;28;20613;-52
2021/10/06 07:49:35;;;;;;;0.50;0.30;;;11.90;99.90;;;;;;5070205;28;20885;-58
2021/10/06 07:52:03;;;;;;;0.60;0.20;;;11.90;99.90;;;;;;5070918;28;20470;-54
2021/10/06 07:54:48;;;;;;;1.00;0.20;;;12.00;99.90;;;;;;5074574;28;20487;-52
2021/10/06 07:57:15;;;;;;;0.80;0.30;;;12.30;99.90;;;;;;5089203;28;20520;-56
2021/10/06 07:59:42;;;;;;;0.50;0.20;;;12.50;99.90;;;;;;5088457;28;20467;-57
2021/10/06 08:02:12;;;;;;;1.20;0.20;;;12.50;99.90;;;;;;5084782;28;20430;-54
2021/10/06 08:04:40;;;;;;;0.85;0.25;;;12.50;99.90;;;;;;5087148;28;20683;-55
2021/10/06 08:07:08;;;;;;;0.70;0.20;;;12.40;99.90;;;;;;5086104;28;20430;-55
2021/10/06 08:09:35;;;;;;;0.60;0.20;;;12.40;99.90;;;;;;5075298;28;20475;-50
2021/10/06 08:12:07;;;;;;;0.90;0.30;;;12.50;99.90;;;;;;5076278;28;20905;-55
2021/10/06 08:14:34;;;;;;;1.10;0.20;;;12.70;99.90;;;;;;5091918;28;20771;-55
2021/10/06 08:17:02;;;;;;;0.50;0.20;;;12.90;99.90;;;;;;5074058;28;20928;-53
2021/10/06 08:19:29;;;;;;;0.90;0.30;;;12.90;99.90;;;;;;5077285;28;20853;-54
2021/10/06 08:21:57;;;;;;;0.70;0.20;;;13.20;99.90;;;;;;5081050;28;20742;-54
2021/10/06 08:24:24;;;;;;;0.50;0.20;;;13.30;99.90;;;;;;5075861;28;20460;-54
2021/10/06 08:26:53;;;;;;;0.90;0.20;;;13.40;99.90;;;;;;5076173;28;20431;-56
2021/10/06 08:29:24;;;;;;;1.30;0.20;;;13.20;99.90;;;;;;5069459;28;20415;-54
2021/10/06 08:31:54;;;;;;;0.40;0.20;;;13.10;99.90;;;;;;5077939;28;20454;-56
2021/10/06 08:34:22;;;;;;;1.80;0.30;;;13.20;99.90;;;;;;5081155;28;21047;-56
2021/10/06 08:36:49;;;;;;;0.80;0.20;;;13.20;99.90;;;;;;5073847;28;20431;-56
2021/10/06 08:39:16;;;;;;;0.90;0.20;;;13.10;99.90;;;;;;5080357;28;20483;-57
2021/10/06 08:41:46;;;;;;;1.60;0.20;;;13.20;99.90;;;;;;5072678;28;20530;-53
2021/10/06 08:44:13;;;;;;;0.40;0.20;;;13.20;99.90;;;;;;5084426;28;20929;-54
2021/10/06 08:46:42;;;;;;;0.60;0.20;;;13.20;99.90;;;;;;5083520;28;20507;-55
2021/10/06 08:49:09;;;;;;;0.70;0.20;;;13.10;99.90;;;;;;5083112;28;21224;-55
2021/10/06 08:51:38;;;;;;;1.17;0.20;;;13.30;99.90;;;;;;5078711;28;20437;-54
2021/10/06 08:54:06;;;;;;;1.20;0.20;;;13.40;99.90;;;;;;5081846;28;21152;-53
2021/10/06 08:56:33;;;;;;;0.43;0.20;;;13.30;99.90;;;;;;5071762;28;20433;-54
2021/10/06 08:59:01;;;;;;;0.60;0.30;;;13.20;99.90;;;;;;5077944;28;20509;-55
2021/10/06 09:01:31;;;;;;;0.50;0.30;;;13.10;99.90;;;;;;5077695;28;20421;-54
2021/10/06 09:04:05;;;;;;;1.55;0.30;;;13.00;99.90;;;;;;5075025;28;20430;-54
2021/10/06 09:06:35;;;;;;;0.50;0.20;;;12.90;99.90;;;;;;5068649;28;20427;-57
2021/10/06 09:09:15;;;;;;;0.40;0.20;;;13.30;99.90;;;;;;5070431;28;20872;-53
2021/10/06 09:11:54;;;;;;;1.05;0.30;;;13.60;99.90;;;;;;5074857;28;20466;-55
2021/10/06 09:14:24;;;;;;;1.05;0.20;;;13.90;99.90;;;;;;5072059;28;20420;-53
2021/10/06 09:17:06;;;;;;;0.40;0.20;;;14.00;99.90;;;;;;5077275;28;20427;-54
2021/10/06 09:19:44;;;;;;;1.38;0.20;;;14.20;99.90;;;;;;5078303;28;20898;-54
2021/10/06 09:22:21;;;;;;;1.70;0.20;;;14.40;99.90;;;;;;5081312;28;20498;-57
2021/10/06 09:24:53;;;;;;;0.50;0.20;;;14.60;99.90;;;;;;5075180;28;20573;-52
2021/10/06 09:27:22;;;;;;;0.47;0.20;;;14.60;99.90;;;;;;5083638;28;20524;-54
2021/10/06 09:29:51;;;;;;;0.80;0.20;;;14.70;99.90;;;;;;5084105;28;21016;-54
2021/10/06 09:32:24;;;;;;;0.67;0.20;;;14.70;99.90;;;;;;5073331;28;20489;-53
2021/10/06 09:35:18;;;;;;;0.40;0.20;;;14.50;99.90;;;;;;5068815;28;20809;-55
2021/10/06 09:37:49;;;;;;;0.50;0.20;;;14.40;99.90;;;;;;5069991;28;20792;-55
2021/10/06 09:40:21;;;;;;;1.20;0.20;;;14.70;99.90;;;;;;5079188;28;20526;-54
2021/10/06 09:42:52;;;;;;;0.70;0.30;;;14.70;99.90;;;;;;5077676;28;20435;-53
2021/10/06 09:45:26;;;;;;;0.90;0.30;;;15.00;99.90;;;;;;5077745;28;20419;-53
2021/10/06 09:48:05;;;;;;;0.75;0.20;;;15.20;99.90;;;;;;5084552;28;20441;-53
2021/10/06 09:50:37;;;;;;;1.05;0.45;;;15.20;99.90;;;;;;5086146;28;20426;-55
2021/10/06 09:53:08;;;;;;;1.80;0.20;;;15.20;99.90;;;;;;5088909;28;20425;-54
2021/10/06 09:55:37;;;;;;;1.77;0.30;;;15.20;99.90;;;;;;5082119;28;20483;-55
2021/10/06 09:58:07;;;;;;;0.40;0.20;;;15.00;99.90;;;;;;5075902;28;20525;-54
2021/10/06 10:00:44;;;;;;;0.90;0.20;;;15.10;99.90;;;;;;5085433;28;20425;-55
2021/10/06 10:03:12;;;;;;;0.60;0.20;;;15.10;99.90;;;;;;5090545;28;20437;-56
2021/10/06 10:05:43;;;;;;;0.70;0.20;;;15.20;99.90;;;;;;5086108;28;20494;-55
2021/10/06 10:08:21;;;;;;;0.80;0.20;;;15.10;99.90;;;;;;5075255;28;20427;-52
2021/10/06 10:10:51;;;;;;;0.50;0.20;;;14.80;99.90;;;;;;5070439;28;20427;-50
2021/10/06 10:13:28;;;;;;;0.50;0.20;;;14.60;99.90;;;;;;5072242;28;20754;-48
2021/10/06 10:15:56;;;;;;;0.75;0.20;;;14.30;99.90;;;;;;5076768;28;20430;-52
2021/10/06 10:18:23;;;;;;;1.70;0.22;;;14.10;99.90;;;;;;5088133;28;20817;-51
2021/10/06 10:20:53;;;;;;;0.77;0.28;;;14.20;99.90;;;;;;5078984;28;20493;-52
2021/10/06 10:23:25;;;;;;;0.70;0.20;;;14.30;99.90;;;;;;5085112;28;20422;-50
2021/10/06 10:25:53;;;;;;;0.50;0.20;;;14.30;99.90;;;;;;5080820;28;20425;-51
2021/10/06 10:28:23;;;;;;;0.50;0.20;;;14.40;99.90;;;;;;5078333;28;20525;-49
2021/10/06 10:31:03;;;;;;;1.65;0.90;;;14.70;99.90;;;;;;5082483;28;20735;-54
2021/10/06 10:33:42;;;;;;;0.50;0.23;;;15.30;99.90;;;;;;5076989;28;20435;-54
2021/10/06 10:37:02;;;;;;;0.50;0.20;;;15.70;99.90;;;;;;5074349;28;20439;-54
2021/10/06 10:39:59;;;;;;;0.70;0.20;;;16.00;99.90;;;;;;5092123;28;20512;-54
2021/10/06 10:43:01;;;;;;;0.70;0.30;;;16.90;99.90;;;;;;5086175;28;20461;-52
2021/10/06 10:45:47;;;;;;;0.60;0.20;;;17.20;99.90;;;;;;5071488;28;20407;-53
2021/10/06 10:48:17;;;;;;;0.70;0.20;;;17.10;99.90;;;;;;5075697;28;20437;-53
2021/10/06 10:51:08;;;;;;;0.70;0.20;;;16.10;99.90;;;;;;5075127;28;20455;-51
2021/10/06 10:54:01;;;;;;;0.80;0.30;;;15.00;99.90;;;;;;5073035;28;20439;-54
2021/10/06 10:56:48;;;;;;;0.50;0.20;;;14.30;99.90;;;;;;5093302;28;20833;-50
2021/10/06 10:59:25;;;;;;;0.50;0.20;;;13.90;99.90;;;;;;5087005;28;20453;-50
2021/10/06 11:02:29;;;;;;;1.45;0.30;;;13.80;99.90;;;;;;5088011;28;20418;-49
2021/10/06 11:05:11;;;;;;;0.60;0.20;;;13.90;99.90;;;;;;5092779;28;20437;-50
2021/10/06 11:07:51;;;;;;;1.23;0.30;;;14.30;99.90;;;;;;5087945;28;20452;-53
2021/10/06 11:10:47;;;;;;;0.98;0.40;;;14.60;99.90;;;;;;5091154;28;20870;-51
2021/10/06 11:13:45;;;;;;;0.90;0.20;;;14.80;99.90;;;;;;5085430;28;20421;-53
2021/10/06 11:16:42;;;;;;;2.20;0.20;;;14.80;99.90;;;;;;5090754;28;20714;-51
2021/10/06 11:19:40;;;;;;;0.50;0.20;;;14.90;99.90;;;;;;5071944;28;20427;-52
2021/10/06 11:22:48;;;;;;;1.10;0.30;;;15.20;99.90;;;;;;5073780;28;20701;-54
2021/10/06 11:25:23;;;;;;;2.30;0.50;;;15.40;99.90;;;;;;5076637;28;20925;-53
2021/10/06 11:27:56;;;;;;;2.17;0.30;;;15.40;99.90;;;;;;5086462;28;20440;-54
2021/10/06 11:30:32;;;;;;;0.65;0.30;;;15.50;99.90;;;;;;5089295;28;20437;-55
2021/10/06 11:32:59;;;;;;;0.40;0.10;;;15.50;99.90;;;;;;5091598;28;20718;-55
2021/10/06 11:35:37;;;;;;;0.40;0.20;;;15.60;99.90;;;;;;5092312;28;20520;-55
2021/10/06 11:38:10;;;;;;;0.80;0.20;;;15.80;99.90;;;;;;5085509;28;20495;-58
2021/10/06 11:40:40;;;;;;;0.90;0.20;;;16.00;99.90;;;;;;5084826;28;20440;-53
2021/10/06 11:43:12;;;;;;;0.63;0.20;;;16.10;99.90;;;;;;5091026;28;20934;-53
2021/10/06 11:45:53;;;;;;;0.63;0.20;;;16.40;99.90;;;;;;5089077;28;20421;-55
2021/10/06 11:48:23;;;;;;;0.40;0.20;;;16.60;99.90;;;;;;5082335;28;20427;-56
2021/10/06 11:50:53;;;;;;;0.40;0.20;;;16.70;99.90;;;;;;5069001;28;20495;-57
2021/10/06 11:53:23;;;;;;;0.40;0.20;;;16.40;99.90;;;;;;5079661;28;20430;-57
2021/10/06 11:55:54;;;;;;;0.50;0.20;;;16.60;99.90;;;;;;5070385;28;20512;-55
2021/10/06 11:58:40;;;;;;;0.40;0.20;;;16.10;99.90;;;;;;5069297;28;20423;-55
2021/10/06 12:01:14;;;;;;;0.50;0.20;;;16.00;99.90;;;;;;5070472;28;20420;-57
2021/10/06 12:03:43;;;;;;;0.40;0.10;;;16.20;99.90;;;;;;5079419;28;20721;-57
2021/10/06 12:06:21;;;;;;;0.98;0.20;;;16.40;99.90;;;;;;5079506;28;20426;-57
2021/10/06 12:08:55;;;;;;;0.50;0.20;;;16.70;99.90;;;;;;5082791;28;20422;-58
2021/10/06 12:11:24;;;;;;;0.98;0.20;;;16.70;99.90;;;;;;5077920;28;20457;-58
2021/10/06 12:13:54;;;;;;;0.80;0.20;;;16.60;99.90;;;;;;5078433;28;20418;-58
2021/10/06 12:16:28;;;;;;;0.40;0.20;;;16.10;99.90;;;;;;5081534;28;20719;-58
2021/10/06 12:19:03;;;;;;;0.50;0.20;;;16.00;99.90;;;;;;5083656;28;20856;-57
2021/10/06 12:21:32;;;;;;;0.40;0.10;;;15.70;99.90;;;;;;5075267;28;20862;-58
2021/10/06 12:24:17;;;;;;;0.70;0.20;;;15.40;99.90;;;;;;5081823;28;20523;-56
2021/10/06 12:26:45;;;;;;;0.50;0.10;;;14.80;99.90;;;;;;5089930;28;20441;-54
2021/10/06 12:29:13;;;;;;;0.70;0.20;;;14.30;99.90;;;;;;5085311;28;20434;-53
2021/10/06 12:31:43;;;;;;;0.60;0.10;;;14.20;99.90;;;;;;5088618;28;20512;-56
2021/10/06 12:34:13;;;;;;;0.60;0.20;;;13.90;99.90;;;;;;5088888;28;20425;-54
2021/10/06 12:36:49;;;;;;;1.80;0.60;;;13.70;99.90;;;;;;5089323;28;20749;-57
2021/10/06 12:39:44;;;;;;;0.60;0.40;;;13.60;99.90;;;;;;5088135;28;20816;-57
2021/10/06 12:42:20;;;;;;;1.20;0.20;;;13.80;99.90;;;;;;5090672;28;20733;-58
2021/10/06 12:44:51;;;;;;;1.10;0.20;;;13.70;99.90;;;;;;5088101;28;20762;-56
2021/10/06 12:47:32;;;;;;;0.50;0.20;;;13.80;99.90;;;;;;5090822;28;20426;-57
2021/10/06 12:52:44;;;;;;;0.90;0.20;;;13.80;99.90;;;;;;5068414;28;20400;-57
2021/10/06 12:55:18;;;;;;;0.50;0.20;;;13.90;99.90;;;;;;5070041;28;20407;-57
2021/10/06 12:58:08;;;;;;;0.47;0.20;;;14.30;99.90;;;;;;5071861;28;20462;-57
2021/10/06 13:00:50;;;;;;;0.40;0.20;;;14.50;99.90;;;;;;5082784;28;20502;-58
2021/10/06 13:03:26;;;;;;;0.90;0.20;;;14.70;99.90;;;;;;5087070;28;20440;-58
2021/10/06 13:05:57;;;;;;;0.65;0.20;;;14.70;99.90;;;;;;5089433;28;20417;-59
2021/10/06 13:08:30;;;;;;;0.60;0.20;;;14.70;99.90;;;;;;5088966;28;20490;-57